Time;durP1;ratioP1;P1;durP2;ratioP2;P2;SDS_P1;SDS_P2;PMS_P1;PMS_P2;Temp;Humidity;BMP_temperature;BMP_pressure;BME280_temperature;BME280_humidity;BME280_pressure;Samples;Min_cycle;Max_cycle;Signal;HPM_P1;HPM_P2
2022/05/07 00:00:31;;;;;;;22.58;12.82;;;;;;;10.39;73.82;101211.84;5071590;28;20059;-69
2022/05/07 00:02:58;;;;;;;17.30;11.60;;;;;;;10.30;74.26;101218.03;5077671;28;20033;-69
2022/05/07 00:05:24;;;;;;;20.23;12.73;;;;;;;10.29;74.27;101215.41;5069445;28;20059;-70
2022/05/07 00:07:50;;;;;;;18.42;12.13;;;;;;;10.26;74.36;101218.94;5051969;28;20140;-71
2022/05/07 00:10:16;;;;;;;19.92;13.00;;;;;;;10.22;74.43;101208.44;5052581;28;20043;-68
2022/05/07 00:12:41;;;;;;;19.08;12.02;;;;;;;10.15;74.46;101206.72;5072864;28;20104;-70
2022/05/07 00:15:08;;;;;;;17.73;11.80;;;;;;;10.44;73.09;101211.78;5071507;28;20123;-69
2022/05/07 00:20:17;;;;;;;18.88;11.98;;;;;;;9.98;74.61;101210.34;5073040;28;20051;-68
2022/05/07 00:22:43;;;;;;;17.00;11.35;;;;;;;9.91;75.01;101219.13;5073112;28;20036;-70
2022/05/07 00:25:09;;;;;;;18.58;11.77;;;;;;;9.81;75.63;101210.44;5071537;28;20060;-69
2022/05/07 00:27:35;;;;;;;17.63;10.13;;;;;;;9.73;76.19;101212.19;5072853;28;20452;-69
2022/05/07 00:30:01;;;;;;;16.52;10.95;;;;;;;9.72;76.17;101206.97;5070788;28;20131;-68
2022/05/07 00:32:26;;;;;;;15.95;10.30;;;;;;;9.70;76.29;101211.38;5070830;28;20556;-69
2022/05/07 00:34:52;;;;;;;19.60;12.43;;;;;;;9.74;76.15;101205.22;5072852;28;20036;-70
2022/05/07 00:37:18;;;;;;;15.95;10.25;;;;;;;9.86;74.90;101206.03;5072654;28;20041;-71
2022/05/07 00:39:43;;;;;;;14.73;10.27;;;;;;;9.75;74.81;101204.34;5074544;28;20400;-71
2022/05/07 00:42:09;;;;;;;15.10;10.43;;;;;;;9.83;74.91;101199.91;5076319;28;20468;-70
2022/05/07 00:44:35;;;;;;;17.20;10.13;;;;;;;9.82;74.77;101198.19;5070126;28;20488;-71
2022/05/07 00:47:23;;;;;;;16.92;10.48;;;;;;;9.86;74.03;101199.91;5071656;28;20385;-72
2022/05/07 00:49:52;;;;;;;19.33;9.57;;;;;;;9.99;73.10;101201.56;5066448;28;20036;-70
2022/05/07 00:52:21;;;;;;;15.00;10.73;;;;;;;9.89;73.21;101197.25;5071002;28;20036;-71
2022/05/07 00:54:47;;;;;;;20.08;11.82;;;;;;;9.83;73.41;101205.16;5065227;28;20112;-71
2022/05/07 00:57:14;;;;;;;14.50;9.35;;;;;;;9.85;73.30;101188.53;5070650;28;20034;-69
2022/05/07 00:59:40;;;;;;;15.68;10.15;;;;;;;10.02;72.30;101193.69;5054715;28;20048;-70
2022/05/07 01:02:06;;;;;;;17.42;10.38;;;;;;;9.79;73.24;101193.81;5037922;28;20080;-67
2022/05/07 01:04:32;;;;;;;16.63;10.40;;;;;;;9.88;72.88;101195.50;5076578;28;20437;-70
2022/05/07 01:06:57;;;;;;;14.82;9.50;;;;;;;10.06;72.43;101198.03;5042155;28;20037;-70
2022/05/07 01:09:24;;;;;;;13.23;8.93;;;;;;;10.22;71.16;101196.16;5075208;28;20037;-68
2022/05/07 01:11:50;;;;;;;17.65;10.00;;;;;;;9.62;73.79;101190.41;5077778;28;20040;-68
2022/05/07 01:14:16;;;;;;;14.50;8.40;;;;;;;9.58;73.92;101191.31;5074511;28;20472;-69
2022/05/07 01:16:41;;;;;;;15.10;9.48;;;;;;;9.63;73.61;101193.00;5075056;28;20028;-69
2022/05/07 01:19:07;;;;;;;13.35;8.23;;;;;;;9.74;73.05;101189.47;5074094;28;20114;-68
2022/05/07 01:21:33;;;;;;;11.48;7.78;;;;;;;9.82;72.59;101182.44;5075876;28;20028;-70
2022/05/07 01:23:59;;;;;;;14.60;9.80;;;;;;;9.90;71.87;101180.63;5074248;28;20073;-69
2022/05/07 01:26:25;;;;;;;13.38;8.43;;;;;;;10.20;70.03;101190.03;5076056;28;20068;-69
2022/05/07 01:28:51;;;;;;;12.13;7.53;;;;;;;10.20;69.61;101190.03;5079655;28;20441;-69
2022/05/07 01:31:18;;;;;;;13.77;8.25;;;;;;;10.27;69.12;101185.66;5056944;28;20033;-69
2022/05/07 01:33:43;;;;;;;11.05;6.38;;;;;;;10.26;69.13;101190.03;5050876;28;20039;-69
2022/05/07 01:36:16;;;;;;;10.80;6.07;;;;;;;10.20;69.22;101178.66;5074630;28;20036;-68
2022/05/07 01:38:42;;;;;;;10.20;6.22;;;;;;;10.11;69.48;101188.34;5073744;28;20040;-67
2022/05/07 01:41:07;;;;;;;10.75;6.45;;;;;;;10.10;69.63;101183.13;5074455;28;20044;-67
2022/05/07 01:43:33;;;;;;;12.43;6.85;;;;;;;10.02;69.55;101180.56;5057132;28;20036;-69
2022/05/07 01:45:59;;;;;;;11.15;6.30;;;;;;;9.96;69.76;101177.94;5078329;28;20032;-69
2022/05/07 01:48:25;;;;;;;10.77;6.18;;;;;;;9.85;70.24;101180.66;5057242;28;20097;-68
2022/05/07 01:50:51;;;;;;;10.52;6.32;;;;;;;10.13;69.39;101185.72;5074426;28;20028;-69
2022/05/07 01:53:16;;;;;;;11.32;6.35;;;;;;;10.34;68.06;101182.09;5075219;28;20032;-69
2022/05/07 01:55:43;;;;;;;13.48;7.55;;;;;;;9.66;70.70;101186.03;5074864;28;20058;-69
2022/05/07 01:58:10;;;;;;;13.10;6.90;;;;;;;9.53;71.23;101183.44;5057748;28;20472;-66
2022/05/07 02:00:36;;;;;;;9.07;6.00;;;;;;;9.56;71.01;101175.56;5074440;28;20039;-69
2022/05/07 02:03:02;;;;;;;11.90;6.10;;;;;;;9.59;70.90;101186.03;5074765;28;20052;-68
2022/05/07 02:05:28;;;;;;;11.13;6.10;;;;;;;9.54;71.14;101179.09;5074080;28;20040;-69
2022/05/07 02:07:55;;;;;;;15.35;8.05;;;;;;;9.38;71.58;101175.66;5056140;28;20048;-68
2022/05/07 02:10:21;;;;;;;9.02;6.03;;;;;;;9.56;71.21;101179.94;5042647;28;20033;-69
2022/05/07 02:12:47;;;;;;;9.30;5.82;;;;;;;9.46;71.42;101179.13;5055452;28;20036;-69
2022/05/07 02:15:13;;;;;;;9.50;6.47;;;;;;;9.47;71.42;101170.34;5072428;28;20499;-68
2022/05/07 02:17:38;;;;;;;11.88;7.47;;;;;;;9.55;71.18;101172.94;5073779;28;20044;-69
2022/05/07 02:20:05;;;;;;;11.63;7.60;;;;;;;9.60;70.58;101176.41;5072817;28;20037;-69
2022/05/07 02:22:31;;;;;;;10.80;7.38;;;;;;;9.59;70.46;101175.53;5075474;28;20041;-69
2022/05/07 02:24:58;;;;;;;12.30;7.28;;;;;;;9.71;69.78;101172.00;5073264;28;20123;-69
2022/05/07 02:27:24;;;;;;;14.50;8.80;;;;;;;9.64;69.94;101167.66;5072539;28;20036;-70
2022/05/07 02:29:50;;;;;;;13.38;8.20;;;;;;;9.82;69.08;101162.31;5073244;28;20090;-70
2022/05/07 02:32:15;;;;;;;18.08;11.05;;;;;;;9.59;69.96;101165.03;5072558;28;20037;-70
2022/05/07 02:34:42;;;;;;;13.05;8.82;;;;;;;9.52;70.25;101172.94;5077866;28;20055;-70
2022/05/07 02:37:07;;;;;;;17.52;11.07;;;;;;;9.43;70.55;101162.50;5072311;28;20040;-68
2022/05/07 02:39:33;;;;;;;14.18;9.65;;;;;;;9.42;70.73;101172.13;5055966;28;20090;-69
2022/05/07 02:44:43;;;;;;;13.75;9.43;;;;;;;9.53;70.36;101172.06;5073790;28;20071;-70
2022/05/07 02:47:09;;;;;;;16.80;10.73;;;;;;;9.58;70.08;101172.94;5073531;28;20057;-67
2022/05/07 02:49:35;;;;;;;14.93;10.32;;;;;;;9.40;70.76;101168.63;5072981;28;20028;-69
2022/05/07 02:52:01;;;;;;;17.95;12.52;;;;;;;9.38;71.01;101167.78;5072448;28;20491;-70
2022/05/07 02:54:26;;;;;;;15.38;10.55;;;;;;;9.40;70.83;101166.00;5072052;28;20515;-68
2022/05/07 02:56:52;;;;;;;15.35;10.10;;;;;;;9.39;71.07;101172.16;5055009;28;20060;-68
2022/05/07 02:59:17;;;;;;;15.43;10.13;;;;;;;9.39;70.96;101166.91;5073110;28;20036;-69
2022/05/07 03:01:43;;;;;;;14.55;9.02;;;;;;;9.66;69.92;101170.28;5054997;28;20029;-71
2022/05/07 03:04:09;;;;;;;13.98;8.25;;;;;;;9.59;70.14;101175.53;5074855;28;20089;-67
2022/05/07 03:06:35;;;;;;;14.20;8.80;;;;;;;9.69;69.82;101176.34;5031782;28;1136445;-69
2022/05/07 03:09:01;;;;;;;13.57;8.82;;;;;;;9.75;69.52;101167.59;5050877;28;20138;-68
2022/05/07 03:11:27;;;;;;;13.35;7.75;;;;;;;10.12;68.07;101169.09;5053621;28;20092;-69
2022/05/07 03:13:52;;;;;;;14.80;9.35;;;;;;;10.31;67.27;101172.50;5063026;28;20072;-70
2022/05/07 03:16:18;;;;;;;11.75;7.38;;;;;;;10.27;67.19;101162.03;5074248;28;20482;-67
2022/05/07 03:18:43;;;;;;;12.85;8.30;;;;;;;10.28;67.11;101172.50;5073389;28;20033;-67
2022/05/07 03:21:09;;;;;;;14.38;8.85;;;;;;;10.32;67.03;101166.34;5074975;28;20032;-67
2022/05/07 03:23:35;;;;;;;14.23;8.90;;;;;;;10.30;66.90;101159.38;5073823;28;20048;-68
2022/05/07 03:26:00;;;;;;;16.48;8.77;;;;;;;10.31;66.87;101156.72;5073240;28;20044;-67
2022/05/07 03:28:25;;;;;;;13.30;8.43;;;;;;;10.35;66.68;101168.94;5073432;28;20074;-68
2022/05/07 03:30:51;;;;;;;15.45;8.70;;;;;;;10.41;66.34;101162.75;5074650;28;20384;-67
2022/05/07 03:33:16;;;;;;;17.42;8.77;;;;;;;10.29;66.72;101171.66;5073932;28;20111;-68
2022/05/07 03:35:43;;;;;;;14.13;8.00;;;;;;;10.40;66.68;101170.66;5072778;28;20123;-70
2022/05/07 03:38:09;;;;;;;15.18;8.48;;;;;;;10.51;66.27;101164.44;5074384;28;20499;-70
2022/05/07 03:40:35;;;;;;;14.73;9.32;;;;;;;10.55;66.23;101160.91;5074471;28;20123;-70
2022/05/07 03:43:01;;;;;;;13.43;8.95;;;;;;;10.63;65.82;101155.56;5074320;28;20391;-70
2022/05/07 03:45:27;;;;;;;10.07;7.90;;;;;;;10.67;66.00;101162.53;5073265;28;20383;-70
2022/05/07 03:47:53;;;;;;;11.57;7.75;;;;;;;10.71;65.76;101161.63;5072811;28;20036;-70
2022/05/07 03:50:18;;;;;;;11.23;7.57;;;;;;;10.76;65.91;101166.84;5074932;28;20036;-71
2022/05/07 03:55:28;;;;;;;15.25;7.65;;;;;;;11.09;65.13;101173.47;5074571;28;20048;-70
2022/05/07 03:57:54;;;;;;;9.68;6.45;;;;;;;11.31;64.54;101163.59;5072585;28;20047;-69
2022/05/07 04:00:20;;;;;;;11.23;6.50;;;;;;;11.43;63.90;101168.69;5052616;28;20123;-70
2022/05/07 04:02:45;;;;;;;9.95;7.00;;;;;;;11.57;63.60;101166.78;5055856;28;20446;-70
2022/05/07 04:05:11;;;;;;;10.93;6.93;;;;;;;11.58;63.51;101163.25;5073597;28;20578;-70
2022/05/07 04:07:37;;;;;;;10.75;6.78;;;;;;;11.65;63.38;101164.03;5056077;28;20044;-70
2022/05/07 04:10:03;;;;;;;12.07;6.82;;;;;;;11.72;63.16;101164.81;5056558;28;20043;-70
2022/05/07 04:12:29;;;;;;;11.68;7.05;;;;;;;11.79;63.06;101161.22;5072619;28;20157;-70
2022/05/07 04:14:59;;;;;;;11.00;7.43;;;;;;;11.88;62.68;101160.22;5085867;28;20494;-70
2022/05/07 04:17:25;;;;;;;11.77;8.07;;;;;;;11.92;62.69;101161.94;5073273;28;20033;-70
2022/05/07 04:19:51;;;;;;;10.32;6.32;;;;;;;12.07;62.50;101152.03;5072585;28;20036;-70
2022/05/07 04:22:16;;;;;;;9.35;6.32;;;;;;;12.27;61.79;101156.13;5072854;28;20035;-70
2022/05/07 04:24:44;;;;;;;9.98;6.95;;;;;;;12.39;61.38;101161.19;5072185;28;20043;-71
2022/05/07 04:27:09;;;;;;;11.07;6.45;;;;;;;12.55;61.07;101164.44;5073460;28;20039;-71
2022/05/07 04:29:35;;;;;;;12.45;7.32;;;;;;;12.65;60.50;101157.25;5073660;28;20033;-71
2022/05/07 04:32:01;;;;;;;12.80;6.75;;;;;;;12.67;60.27;101160.72;5072641;28;20040;-70
2022/05/07 04:34:28;;;;;;;8.90;6.25;;;;;;;12.79;60.09;101168.41;5074170;28;20111;-70
2022/05/07 04:36:54;;;;;;;9.73;6.97;;;;;;;12.95;59.72;101161.94;5093719;28;20036;-71
2022/05/07 04:39:20;;;;;;;11.32;6.85;;;;;;;12.99;59.90;101173.31;5092772;28;20039;-71
2022/05/07 04:41:46;;;;;;;9.52;5.90;;;;;;;13.12;59.45;101169.50;5074377;28;20501;-70
2022/05/07 04:44:12;;;;;;;11.68;6.88;;;;;;;13.14;59.59;101172.16;5053318;28;20499;-68
2022/05/07 04:46:39;;;;;;;9.18;5.47;;;;;;;13.27;59.45;101171.03;5053812;28;20124;-70
2022/05/07 04:49:05;;;;;;;8.02;5.13;;;;;;;13.40;59.07;101167.22;5058433;28;20033;-70
2022/05/07 04:51:31;;;;;;;7.38;5.28;;;;;;;13.52;58.76;101167.00;5070416;28;20040;-69
2022/05/07 04:53:56;;;;;;;11.02;6.80;;;;;;;13.69;58.39;101163.13;5073785;28;20090;-70
2022/05/07 04:56:24;;;;;;;8.98;5.53;;;;;;;13.79;58.44;101162.00;5072964;28;20052;-69
2022/05/07 04:58:53;;;;;;;12.20;6.90;;;;;;;13.94;57.96;101159.00;5072669;28;20066;-70
2022/05/07 05:01:19;;;;;;;8.98;6.25;;;;;;;14.13;57.60;101163.88;5069596;28;20017;-69
2022/05/07 05:03:44;;;;;;;11.23;6.53;;;;;;;14.21;57.35;101156.63;5072327;28;20039;-71
2022/05/07 05:06:10;;;;;;;8.35;5.82;;;;;;;14.51;56.56;101155.88;5085154;28;20407;-72
2022/05/07 05:08:35;;;;;;;8.48;5.88;;;;;;;14.64;56.28;101152.91;5071606;28;20032;-71
2022/05/07 05:11:00;;;;;;;10.73;6.40;;;;;;;14.71;56.19;101163.28;5080682;28;20040;-70
2022/05/07 05:13:26;;;;;;;8.70;6.30;;;;;;;14.72;56.52;101153.56;5069580;28;20040;-71
2022/05/07 05:15:51;;;;;;;11.98;5.30;;;;;;;14.73;56.48;101153.56;5073871;28;20029;-71
2022/05/07 05:18:17;;;;;;;9.07;5.55;;;;;;;14.78;56.35;101153.41;5075261;28;20106;-71
2022/05/07 05:20:42;;;;;;;6.20;4.80;;;;;;;14.79;56.41;101155.16;5071427;28;20025;-69
2022/05/07 05:23:09;;;;;;;7.20;5.28;;;;;;;15.00;56.04;101154.59;5074200;28;20029;-71
2022/05/07 05:25:34;;;;;;;8.18;5.40;;;;;;;14.99;56.24;101152.81;5069967;28;20464;-72
2022/05/07 05:28:00;;;;;;;8.55;4.75;;;;;;;15.03;56.17;101141.25;5072065;28;20063;-71
2022/05/07 05:30:25;;;;;;;7.20;4.80;;;;;;;15.14;56.01;101150.69;5071056;28;20028;-70
2022/05/07 05:32:50;;;;;;;9.63;4.97;;;;;;;15.39;55.50;101151.69;5071429;28;20036;-71
2022/05/07 05:35:16;;;;;;;8.93;4.70;;;;;;;15.60;54.93;101144.00;5072000;28;20060;-71
2022/05/07 05:37:41;;;;;;;6.97;4.85;;;;;;;15.88;54.12;101142.31;5070994;28;20040;-71
2022/05/07 05:40:07;;;;;;;7.15;4.40;;;;;;;15.95;53.80;101146.47;5071096;28;20040;-71
2022/05/07 05:42:33;;;;;;;8.57;4.68;;;;;;;16.16;53.26;101149.38;5075517;28;20048;-72
2022/05/07 05:44:58;;;;;;;6.22;4.38;;;;;;;16.24;53.04;101137.59;5074718;28;20392;-70
2022/05/07 05:47:24;;;;;;;7.60;4.68;;;;;;;16.29;53.01;101148.06;5068019;28;20036;-73
2022/05/07 05:49:50;;;;;;;9.13;5.05;;;;;;;16.50;52.58;101149.09;5055827;28;20033;-72
2022/05/07 05:52:16;;;;;;;6.05;4.40;;;;;;;16.68;52.26;101143.19;5073931;28;20377;-69
2022/05/07 05:54:41;;;;;;;5.72;3.70;;;;;;;16.81;52.01;101154.25;5074314;28;20038;-72
2022/05/07 05:57:06;;;;;;;4.07;3.00;;;;;;;16.91;51.59;101149.47;5075233;28;20035;-71
2022/05/07 05:59:32;;;;;;;4.35;2.78;;;;;;;16.86;51.44;101152.31;5077769;28;20036;-71
2022/05/07 06:01:57;;;;;;;4.70;2.50;;;;;;;16.78;50.84;101149.06;5073640;28;20040;-73
2022/05/07 06:04:23;;;;;;;4.40;2.33;;;;;;;16.85;51.26;101150.56;5075264;28;20028;-71
2022/05/07 06:06:48;;;;;;;3.15;1.83;;;;;;;16.70;50.68;101151.06;5077021;28;20043;-72
2022/05/07 06:09:14;;;;;;;2.05;1.48;;;;;;;16.62;51.19;101151.34;5073500;28;20064;-72
2022/05/07 06:11:39;;;;;;;4.43;1.70;;;;;;;16.77;51.11;101155.28;5073725;28;20071;-72
2022/05/07 06:14:04;;;;;;;4.32;1.80;;;;;;;16.98;50.71;101151.88;5075065;28;20387;-72
2022/05/07 06:16:30;;;;;;;3.15;1.73;;;;;;;17.23;50.16;101156.28;5076393;28;20046;-70
2022/05/07 06:18:55;;;;;;;3.55;1.80;;;;;;;17.33;49.80;101157.69;5073252;28;20029;-70
2022/05/07 06:21:21;;;;;;;3.38;2.05;;;;;;;17.46;49.47;101158.94;5054336;28;20051;-69
2022/05/07 06:23:47;;;;;;;7.50;2.00;;;;;;;17.44;49.48;101155.50;5061335;28;20042;-68
2022/05/07 06:28:58;;;;;;;3.88;2.10;;;;;;;17.41;49.89;101154.72;5069657;28;20502;-70
2022/05/07 06:31:24;;;;;;;2.33;1.65;;;;;;;17.43;49.77;101153.78;5075830;28;20033;-70
2022/05/07 06:33:49;;;;;;;4.53;1.75;;;;;;;17.52;49.40;101147.22;5073852;28;20082;-69
2022/05/07 06:36:15;;;;;;;4.00;1.80;;;;;;;17.71;49.12;101152.69;5059164;28;20032;-67
2022/05/07 06:38:40;;;;;;;5.30;1.90;;;;;;;17.94;48.64;101149.16;5095913;28;20467;-68
2022/05/07 06:41:06;;;;;;;3.75;1.88;;;;;;;18.10;48.04;101157.38;5057817;28;20028;-68
2022/05/07 06:43:33;;;;;;;3.85;1.80;;;;;;;18.37;47.68;101147.41;5040140;28;20032;-69
2022/05/07 06:45:59;;;;;;;3.15;1.50;;;;;;;18.42;47.28;101142.75;5075135;28;20040;-69
2022/05/07 06:48:25;;;;;;;3.83;2.35;;;;;;;18.40;47.28;101149.94;5055003;28;20510;-69
2022/05/07 06:50:52;;;;;;;2.92;1.90;;;;;;;18.64;46.93;101142.72;5050736;28;20040;-70
2022/05/07 06:53:18;;;;;;;3.53;1.90;;;;;;;18.56;46.96;101153.69;5072003;28;20024;-69
2022/05/07 06:55:56;;;;;;;2.85;1.90;;;;;;;18.48;47.40;101155.81;5073444;28;20037;-68
2022/05/07 06:58:32;;;;;;;3.05;1.98;;;;;;;18.32;46.34;101160.91;5070281;28;20040;-68
2022/05/07 07:01:00;;;;;;;3.42;2.42;;;;;;;18.20;47.65;101158.75;5077578;28;20030;-69
2022/05/07 07:03:26;;;;;;;6.38;2.08;;;;;;;18.44;47.42;101164.84;5071582;28;20033;-70
2022/05/07 07:05:53;;;;;;;3.00;1.92;;;;;;;18.56;47.21;101158.16;5072615;28;20090;-69
2022/05/07 07:08:19;;;;;;;3.13;2.15;;;;;;;18.61;46.88;101156.16;5074112;28;20082;-68
2022/05/07 07:10:45;;;;;;;4.68;2.22;;;;;;;18.77;46.80;101153.72;5075294;28;20051;-69
2022/05/07 07:13:11;;;;;;;3.92;2.20;;;;;;;19.28;45.70;101153.19;5071100;28;20036;-69
2022/05/07 07:15:39;;;;;;;5.97;2.60;;;;;;;19.64;44.81;101149.81;5052992;28;20035;-69
2022/05/07 07:18:09;;;;;;;4.40;2.17;;;;;;;19.86;44.58;101147.81;5073829;28;20479;-68
2022/05/07 07:20:42;;;;;;;3.58;2.47;;;;;;;19.85;44.55;101151.44;5071428;28;20123;-70
2022/05/07 07:23:12;;;;;;;3.85;2.53;;;;;;;19.72;44.18;101144.09;5055862;28;20097;-67
2022/05/07 07:25:42;;;;;;;4.68;2.97;;;;;;;19.83;43.64;101145.31;5077751;28;20040;-70
2022/05/07 07:28:09;;;;;;;5.10;2.58;;;;;;;19.89;44.40;101152.16;5075618;28;20510;-67
2022/05/07 07:30:35;;;;;;;4.35;2.47;;;;;;;19.87;44.17;101144.25;5055657;28;20032;-68
2022/05/07 07:33:01;;;;;;;5.18;2.20;;;;;;;19.78;44.01;101149.13;5070407;28;20036;-68
2022/05/07 07:35:27;;;;;;;5.10;1.77;;;;;;;19.37;44.66;101158.09;5073537;28;20029;-68
2022/05/07 07:37:53;;;;;;;4.43;1.98;;;;;;;19.53;44.61;101154.72;5071893;28;20479;-68
2022/05/07 07:40:19;;;;;;;3.67;2.20;;;;;;;19.66;44.19;101153.25;5074431;28;20036;-69
2022/05/07 07:42:45;;;;;;;3.58;2.30;;;;;;;19.53;44.16;101147.59;5056538;28;20040;-69
2022/05/07 07:47:57;;;;;;;3.90;1.88;;;;;;;19.35;44.67;101151.09;5054337;28;20491;-68
2022/05/07 07:50:30;;;;;;;5.70;1.95;;;;;;;19.30;44.45;101150.44;5070682;28;20040;-72
2022/05/07 07:53:03;;;;;;;4.38;2.25;;;;;;;19.35;44.32;101160.00;5071474;28;20047;-67
2022/05/07 07:55:29;;;;;;;6.78;2.72;;;;;;;19.08;44.86;101147.91;5072689;28;20377;-69
2022/05/07 07:57:56;;;;;;;5.53;2.53;;;;;;;19.04;44.97;101157.84;5072709;28;20158;-69
2022/05/07 08:00:22;;;;;;;4.45;2.20;;;;;;;18.93;45.41;101150.31;5055010;28;20041;-69
2022/05/07 08:02:53;;;;;;;3.58;2.38;;;;;;;18.86;45.39;101148.84;5077130;28;20055;-70
2022/05/07 08:05:31;;;;;;;4.68;3.10;;;;;;;18.84;45.27;101157.84;5088860;28;20093;-68
2022/05/07 08:13:24;;;;;;;4.20;2.75;;;;;;;19.29;45.37;101149.59;5074092;28;20035;-69
2022/05/07 08:15:50;;;;;;;4.30;2.90;;;;;;;19.47;45.19;101155.00;5073817;28;20103;-69
2022/05/07 08:18:17;;;;;;;4.70;2.80;;;;;;;19.46;44.83;101154.13;5072750;28;20034;-70
2022/05/07 08:20:43;;;;;;;4.75;2.50;;;;;;;19.59;44.81;101155.31;5072538;28;20094;-70
2022/05/07 08:23:10;;;;;;;5.80;2.92;;;;;;;19.69;44.48;101153.97;5072287;28;20032;-70
2022/05/07 08:25:36;;;;;;;5.43;2.78;;;;;;;19.92;44.15;101154.69;5064566;28;20078;-69
2022/05/07 08:28:03;;;;;;;4.25;2.28;;;;;;;20.16;43.07;101153.47;5059197;28;20037;-68
2022/05/07 08:30:29;;;;;;;4.85;2.67;;;;;;;20.17;43.44;101154.34;5053179;28;20089;-68
2022/05/07 08:32:55;;;;;;;4.57;2.25;;;;;;;20.57;43.02;101155.91;5055238;28;20104;-69
2022/05/07 08:35:20;;;;;;;4.45;2.70;;;;;;;20.73;42.51;101152.44;5072109;28;20040;-68
2022/05/07 08:37:46;;;;;;;3.70;2.50;;;;;;;20.69;42.38;101151.75;5072644;28;20041;-70
2022/05/07 08:40:16;;;;;;;4.20;2.30;;;;;;;20.88;42.37;101157.84;5054170;28;20117;-68
2022/05/07 08:42:42;;;;;;;3.90;1.90;;;;;;;20.82;41.98;101146.63;5071641;28;20045;-69
2022/05/07 08:45:09;;;;;;;3.67;2.42;;;;;;;20.90;42.30;101147.97;5054955;28;20089;-69
2022/05/07 08:47:34;;;;;;;4.85;2.53;;;;;;;21.01;41.81;101151.88;5054830;28;20029;-69
2022/05/07 08:50:00;;;;;;;7.63;2.80;;;;;;;20.86;42.10;101148.19;5069036;28;20047;-69
2022/05/07 08:52:27;;;;;;;3.30;2.42;;;;;;;20.72;41.99;101151.59;5070691;28;20033;-69
2022/05/07 08:54:52;;;;;;;4.47;2.20;;;;;;;21.13;41.82;101161.91;5075087;28;20043;-69
2022/05/07 08:57:18;;;;;;;3.88;2.28;;;;;;;21.48;41.30;101146.66;5037454;28;20044;-69
2022/05/07 08:59:44;;;;;;;4.25;2.60;;;;;;;21.57;41.26;101140.81;5071903;28;20056;-69
2022/05/07 09:02:10;;;;;;;4.15;2.42;;;;;;;21.57;40.76;101142.63;5070263;28;20174;-70
2022/05/07 09:04:38;;;;;;;3.97;2.17;;;;;;;21.76;41.47;101143.31;5070221;28;20132;-69
2022/05/07 09:07:14;;;;;;;3.10;1.90;;;;;;;22.02;40.83;101135.59;5077133;28;20032;-72
2022/05/07 09:09:50;;;;;;;5.90;2.70;;;;;;;22.31;39.66;101139.31;5067786;28;20029;-71
2022/05/07 09:12:28;;;;;;;3.47;1.70;;;;;;;22.25;39.32;101139.66;5050805;28;20373;-70
2022/05/07 09:14:55;;;;;;;2.90;1.50;;;;;;;22.28;40.61;101145.72;5064903;28;20037;-70
2022/05/07 09:17:21;;;;;;;3.50;1.73;;;;;;;22.23;40.51;101142.44;5071112;28;20036;-72
2022/05/07 09:19:46;;;;;;;4.90;2.08;;;;;;;22.17;40.30;101144.59;5054337;28;20541;-72
2022/05/07 09:22:12;;;;;;;5.82;2.22;;;;;;;22.21;40.70;101141.66;5072145;28;20028;-71
2022/05/07 09:24:39;;;;;;;4.03;2.20;;;;;;;22.08;40.59;101132.59;5075785;28;20438;-70
2022/05/07 09:27:05;;;;;;;4.43;1.80;;;;;;;22.19;40.45;101130.19;5076132;28;20038;-70
2022/05/07 09:29:32;;;;;;;6.10;2.03;;;;;;;22.01;40.34;101128.53;5075614;28;20033;-72
2022/05/07 09:32:13;;;;;;;3.33;2.03;;;;;;;22.18;39.87;101130.25;5058229;28;20036;-70
2022/05/07 09:37:38;;;;;;;4.70;1.90;;;;;;;22.19;40.66;101116.81;5075745;28;20079;-70
2022/05/07 09:40:09;;;;;;;3.88;1.90;;;;;;;21.86;40.66;101123.13;5074173;28;20052;-71
2022/05/07 09:42:35;;;;;;;3.25;2.13;;;;;;;21.67;41.61;101117.09;5058747;28;20032;-72
2022/05/07 09:45:01;;;;;;;4.85;2.20;;;;;;;21.48;42.02;101113.72;5076306;28;20037;-72
2022/05/07 09:47:27;;;;;;;5.72;2.58;;;;;;;21.57;41.83;101108.72;5057253;28;20124;-69
2022/05/07 09:57:30;;;;;;;3.60;2.17;;;;;;;21.47;41.87;101098.63;5074415;28;20086;-71
2022/05/07 09:58:09;;;;;;;3.30;1.92;;;;;;;21.71;41.86;101094.59;5074847;28;20117;-70
2022/05/07 10:00:43;;;;;;;2.80;1.80;;;;;;;21.87;41.35;101079.38;5074852;28;21782;-70
2022/05/07 10:04:05;;;;;;;4.70;2.35;;;;;;;21.74;40.87;101097.06;5074309;28;20032;-70
2022/05/07 10:07:02;;;;;;;4.07;2.60;;;;;;;21.63;40.74;101080.78;5075020;28;20044;-72
2022/05/07 10:09:58;;;;;;;4.15;2.30;;;;;;;22.00;39.96;101081.34;5075540;28;20033;-72
2022/05/07 10:12:25;;;;;;;3.38;2.40;;;;;;;22.25;40.43;101076.28;5074084;28;20024;-73
2022/05/07 10:14:51;;;;;;;5.18;2.42;;;;;;;22.54;39.89;101074.56;5054027;28;20128;-73
2022/05/07 10:17:21;;;;;;;3.50;2.60;;;;;;;22.79;39.20;101073.06;5074627;28;20039;-73
2022/05/07 10:19:49;;;;;;;3.13;2.13;;;;;;;22.67;39.80;101074.66;5058459;28;20032;-73
2022/05/07 10:22:24;;;;;;;5.88;2.40;;;;;;;22.92;39.41;101071.34;5055314;28;20468;-71
2022/05/07 10:25:08;;;;;;;4.47;2.40;;;;;;;23.23;38.08;101072.13;5074432;28;20086;-71
2022/05/07 10:27:41;;;;;;;4.28;2.80;;;;;;;23.16;37.81;101066.28;5058009;28;20044;-70
2022/05/07 10:30:09;;;;;;;7.65;3.10;;;;;;;23.27;38.15;101062.91;5074309;28;20029;-71
2022/05/07 10:33:04;;;;;;;3.80;2.15;;;;;;;23.75;36.95;101066.09;5054161;28;20033;-71
2022/05/07 10:35:44;;;;;;;4.78;2.92;;;;;;;24.19;35.68;101068.47;5054656;28;20120;-71
2022/05/07 10:38:33;;;;;;;4.53;2.53;;;;;;;24.10;36.10;101066.44;5054453;28;20028;-70
2022/05/07 10:41:01;;;;;;;3.95;2.70;;;;;;;23.73;37.00;101059.94;5054756;28;20031;-71
2022/05/07 10:43:42;;;;;;;7.75;2.25;;;;;;;23.73;36.88;101063.50;5054097;28;20033;-71
2022/05/07 10:46:16;;;;;;;3.58;2.28;;;;;;;23.90;36.41;101056.13;5054336;28;20578;-71
2022/05/07 10:48:57;;;;;;;3.45;2.20;;;;;;;23.66;36.37;101061.31;5053888;28;20044;-71
2022/05/07 10:51:26;;;;;;;6.47;2.80;;;;;;;23.80;36.87;101069.31;5055926;28;20044;-71
2022/05/07 10:53:52;;;;;;;3.45;2.22;;;;;;;23.81;36.94;101066.53;5053993;28;20029;-70
2022/05/07 10:56:19;;;;;;;2.58;1.73;;;;;;;23.59;36.97;101059.00;5062808;28;20028;-69
2022/05/07 10:58:52;;;;;;;7.30;2.30;;;;;;;23.29;36.48;101072.56;5072854;28;20045;-71
2022/05/07 11:01:22;;;;;;;3.17;1.83;;;;;;;22.99;37.55;101053.09;5074068;28;20383;-71
2022/05/07 11:03:48;;;;;;;3.45;1.65;;;;;;;22.56;37.93;101061.91;5072872;28;20032;-71
2022/05/07 11:06:14;;;;;;;3.28;1.98;;;;;;;22.31;38.56;101061.69;5074856;28;20055;-71
2022/05/07 11:08:52;;;;;;;3.42;1.83;;;;;;;22.42;37.57;101061.03;5073646;28;20115;-71
2022/05/07 11:11:18;;;;;;;1.98;1.50;;;;;;;22.37;38.72;101056.81;5073799;28;20062;-71
2022/05/07 11:13:48;;;;;;;2.28;1.58;;;;;;;22.36;38.90;101060.44;5056751;28;20025;-71
2022/05/07 11:16:16;;;;;;;5.53;1.70;;;;;;;22.26;39.05;101064.66;5073506;28;20067;-71
2022/05/07 11:18:45;;;;;;;3.70;2.00;;;;;;;22.19;39.05;101065.97;5074819;28;20040;-71
2022/05/07 11:21:11;;;;;;;4.75;1.75;;;;;;;22.11;39.56;101063.69;5053873;28;20064;-71
2022/05/07 11:23:39;;;;;;;3.28;1.83;;;;;;;22.23;39.34;101064.81;5053125;28;20037;-72
2022/05/07 11:26:19;;;;;;;3.15;1.88;;;;;;;22.34;38.50;101062.38;5072671;28;20036;-69
2022/05/07 11:28:45;;;;;;;3.15;1.90;;;;;;;22.28;39.01;101057.38;5074434;28;20035;-73
2022/05/07 11:31:36;;;;;;;5.40;2.00;;;;;;;22.41;38.33;101068.19;5072520;28;20032;-70
2022/05/07 11:34:12;;;;;;;3.70;1.60;;;;;;;22.47;37.81;101064.31;5074461;28;20036;-70
2022/05/07 11:36:38;;;;;;;3.65;1.80;;;;;;;22.55;38.30;101054.00;5073227;28;20029;-70
2022/05/07 11:39:08;;;;;;;3.47;1.70;;;;;;;22.47;38.04;101067.00;5073227;28;20078;-70
2022/05/07 11:41:36;;;;;;;3.38;2.05;;;;;;;22.31;38.50;101057.19;5074334;28;20040;-70
2022/05/07 11:46:56;;;;;;;2.65;1.30;;;;;;;22.60;37.97;101046.53;5073358;28;20123;-70
2022/05/07 11:49:28;;;;;;;6.28;1.98;;;;;;;22.65;37.95;101044.44;5072993;28;20036;-71
2022/05/07 11:52:04;;;;;;;2.10;1.63;;;;;;;22.52;37.72;101054.19;5073868;28;20471;-70
2022/05/07 11:54:30;;;;;;;5.07;1.40;;;;;;;22.47;38.93;101053.59;5039648;28;20051;-70